createdAt,value
2022-09-03T00:00:18.072Z,25.67
2022-09-03T00:02:45.571Z,25.51
2022-09-03T00:05:12.122Z,25.55
2022-09-03T00:07:41.223Z,25.46
2022-09-03T00:10:08.682Z,25.28
2022-09-03T00:12:34.975Z,25.50
2022-09-03T00:15:00.522Z,25.61
2022-09-03T00:17:25.621Z,25.39
2022-09-03T00:19:53.447Z,25.42
2022-09-03T00:22:19.022Z,25.28
2022-09-03T00:24:43.861Z,25.24
2022-09-03T00:27:09.806Z,25.25
2022-09-03T00:29:36.614Z,25.20
2022-09-03T00:32:02.331Z,25.05
2022-09-03T00:34:27.978Z,25.06
2022-09-03T00:36:51.515Z,25.08
2022-09-03T00:39:16.034Z,25.08
2022-09-03T00:41:41.842Z,24.98
2022-09-03T00:44:16.152Z,25.04
2022-09-03T00:46:42.000Z,24.95
2022-09-03T00:49:34.650Z,25.03
2022-09-03T00:52:02.719Z,25.20
2022-09-03T00:54:28.698Z,25.04
2022-09-03T00:57:09.053Z,25.02
2022-09-03T00:59:34.602Z,24.84
2022-09-03T01:02:06.096Z,25.07
2022-09-03T01:04:34.941Z,25.07
2022-09-03T01:07:01.539Z,24.96
2022-09-03T01:09:33.457Z,25.22
2022-09-03T01:12:01.162Z,25.17
2022-09-03T01:14:31.161Z,25.16
2022-09-03T01:16:56.405Z,25.02
2022-09-03T01:19:45.916Z,24.70
2022-09-03T01:22:21.315Z,24.85
2022-09-03T01:25:07.995Z,24.74
2022-09-03T01:27:39.478Z,24.68
2022-09-03T01:30:06.179Z,24.78
2022-09-03T01:32:33.809Z,24.65
2022-09-03T01:35:02.704Z,24.57
2022-09-03T01:37:32.583Z,24.55
2022-09-03T01:40:01.634Z,24.72
2022-09-03T01:42:28.299Z,24.76
2022-09-03T01:45:13.400Z,24.74
2022-09-03T01:47:42.068Z,24.63
2022-09-03T01:50:07.346Z,24.36
2022-09-03T01:52:38.618Z,24.37
2022-09-03T01:55:07.454Z,24.55
2022-09-03T01:57:38.802Z,24.57
2022-09-03T02:00:06.578Z,24.39
2022-09-03T02:02:35.586Z,24.44
2022-09-03T02:05:01.978Z,24.51
2022-09-03T02:07:26.246Z,24.65
2022-09-03T02:09:49.464Z,24.27
2022-09-03T02:12:16.384Z,24.12
2022-09-03T02:14:39.645Z,24.25
2022-09-03T02:17:04.473Z,24.35
2022-09-03T02:19:28.313Z,24.25
2022-09-03T02:21:54.455Z,24.37
2022-09-03T02:24:17.689Z,24.43
2022-09-03T02:26:41.762Z,24.11
2022-09-03T02:29:05.126Z,24.03
2022-09-03T02:31:28.923Z,24.06
2022-09-03T02:33:52.302Z,23.96
2022-09-03T02:36:18.499Z,24.06
2022-09-03T02:38:43.768Z,24.16
2022-09-03T02:41:07.113Z,23.95
2022-09-03T02:43:33.430Z,23.78
2022-09-03T02:45:58.504Z,23.86
2022-09-03T02:48:23.941Z,23.68
2022-09-03T02:50:47.292Z,23.62
2022-09-03T02:53:10.591Z,23.64
2022-09-03T02:55:35.403Z,23.59
2022-09-03T02:58:00.144Z,23.28
2022-09-03T03:00:23.413Z,23.49
2022-09-03T03:02:47.161Z,23.51
2022-09-03T03:05:11.240Z,23.26
2022-09-03T03:07:35.705Z,23.25
2022-09-03T03:09:59.132Z,23.47
2022-09-03T03:12:23.747Z,23.41
2022-09-03T03:14:46.985Z,23.14
2022-09-03T03:17:10.330Z,23.14
2022-09-03T03:19:33.625Z,23.63
2022-09-03T03:21:56.977Z,24.02
2022-09-03T03:24:20.198Z,24.44
2022-09-03T03:26:43.506Z,24.40
2022-09-03T03:29:08.139Z,24.29
2022-09-03T03:31:31.469Z,24.63
2022-09-03T03:33:54.791Z,24.81
2022-09-03T03:36:18.095Z,24.60
2022-09-03T03:38:41.664Z,24.76
2022-09-03T03:41:08.895Z,24.68
2022-09-03T03:43:32.235Z,24.09
2022-09-03T03:46:00.330Z,23.92
2022-09-03T03:48:23.762Z,23.96
2022-09-03T03:50:47.733Z,24.02
2022-09-03T03:53:11.148Z,23.93
2022-09-03T03:55:35.112Z,23.98
2022-09-03T03:58:00.212Z,24.47
2022-09-03T04:00:24.721Z,24.79
2022-09-03T04:02:49.446Z,24.92
2022-09-03T04:05:12.880Z,24.88
2022-09-03T04:07:36.141Z,24.50
2022-09-03T04:09:59.479Z,24.13
2022-09-03T04:12:22.765Z,24.02
2022-09-03T04:14:46.095Z,23.78
2022-09-03T04:17:09.336Z,23.87
2022-09-03T04:19:33.997Z,24.16
2022-09-03T04:21:57.329Z,24.57
2022-09-03T04:24:20.579Z,24.90
2022-09-03T04:26:43.900Z,24.59
2022-09-03T04:29:08.032Z,24.28
2022-09-03T04:31:31.775Z,24.02
2022-09-03T04:33:54.759Z,23.86
2022-09-03T04:36:20.447Z,23.56
2022-09-03T04:38:44.752Z,23.72
2022-09-03T04:41:08.327Z,23.79
2022-09-03T04:43:31.559Z,23.74
2022-09-03T04:45:58.553Z,23.89
2022-09-03T04:48:21.871Z,23.79
2022-09-03T04:50:45.264Z,23.95
2022-09-03T04:53:09.909Z,24.04
2022-09-03T04:55:34.759Z,23.85
2022-09-03T04:57:58.010Z,23.66
2022-09-03T05:00:21.876Z,23.64
2022-09-03T05:02:46.833Z,23.82
2022-09-03T05:05:10.485Z,23.66
2022-09-03T05:07:38.700Z,23.62
2022-09-03T05:10:03.716Z,23.45
2022-09-03T05:12:27.048Z,23.49
2022-09-03T05:14:50.296Z,23.65
2022-09-03T05:17:13.660Z,23.41
2022-09-03T05:19:36.970Z,23.42
2022-09-03T05:22:00.303Z,23.34
2022-09-03T05:24:24.577Z,23.24
2022-09-03T05:26:49.813Z,23.27
2022-09-03T05:29:14.351Z,23.40
2022-09-03T05:31:39.069Z,23.59
2022-09-03T05:34:03.366Z,23.69
2022-09-03T05:36:27.465Z,23.74
2022-09-03T05:38:50.839Z,23.62
2022-09-03T05:41:14.772Z,23.76
2022-09-03T05:43:39.607Z,23.74
2022-09-03T05:46:03.857Z,23.55
2022-09-03T05:48:27.227Z,23.79
2022-09-03T05:50:50.563Z,23.73
2022-09-03T05:53:14.468Z,23.66
2022-09-03T05:55:37.762Z,23.50
2022-09-03T05:58:01.213Z,23.26
2022-09-03T06:00:25.805Z,23.48
2022-09-03T06:02:51.942Z,23.60
2022-09-03T06:05:16.962Z,23.36
2022-09-03T06:07:40.228Z,23.08
2022-09-03T06:10:04.883Z,23.04
2022-09-03T06:12:28.279Z,23.10
2022-09-03T06:14:51.782Z,23.24
2022-09-03T06:17:16.554Z,23.12
2022-09-03T06:19:40.264Z,22.96
2022-09-03T06:22:03.634Z,22.85
2022-09-03T06:24:29.712Z,22.93
2022-09-03T06:26:53.170Z,23.16
2022-09-03T06:29:17.083Z,23.01
2022-09-03T06:31:40.485Z,23.04
2022-09-03T06:34:06.143Z,23.06
2022-09-03T06:36:29.443Z,22.95
2022-09-03T06:38:53.405Z,22.93
2022-09-03T06:41:19.379Z,23.15
2022-09-03T06:43:43.434Z,23.20
2022-09-03T06:46:07.903Z,23.29
2022-09-03T06:48:32.231Z,22.96
2022-09-03T06:50:58.782Z,23.10
2022-09-03T06:53:23.916Z,22.95
2022-09-03T06:55:56.419Z,23.21
2022-09-03T06:58:19.684Z,23.23
2022-09-03T07:00:43.168Z,23.11
2022-09-03T07:03:07.047Z,23.32
2022-09-03T07:05:30.621Z,23.33
2022-09-03T07:07:55.282Z,23.35
2022-09-03T07:10:20.944Z,23.35
2022-09-03T07:12:44.223Z,23.30
2022-09-03T07:15:08.450Z,23.04
2022-09-03T07:17:31.697Z,23.23
2022-09-03T07:19:54.999Z,23.36
2022-09-03T07:22:18.251Z,23.36
2022-09-03T07:24:43.173Z,23.42
2022-09-03T07:27:11.800Z,23.49
2022-09-03T07:29:37.658Z,23.22
2022-09-03T07:32:00.959Z,23.07
2022-09-03T07:34:26.754Z,23.43
2022-09-03T07:36:51.404Z,22.98
2022-09-03T07:39:15.683Z,23.10
2022-09-03T07:41:42.823Z,23.01
2022-09-03T07:44:06.714Z,22.80
2022-09-03T07:46:30.117Z,22.53
2022-09-03T07:48:53.913Z,22.65
2022-09-03T07:51:17.737Z,22.88
2022-09-03T07:53:41.056Z,22.88
2022-09-03T07:56:05.546Z,22.77
2022-09-03T07:58:31.398Z,22.81
2022-09-03T08:00:57.217Z,22.50
2022-09-03T08:03:20.606Z,22.51
2022-09-03T08:05:43.959Z,22.60
2022-09-03T08:08:08.315Z,22.58
2022-09-03T08:10:32.685Z,22.49
2022-09-03T08:12:55.987Z,22.60
2022-09-03T08:15:20.750Z,22.50
2022-09-03T08:17:45.369Z,22.62
2022-09-03T08:20:10.154Z,22.57
2022-09-03T08:22:34.303Z,22.50
2022-09-03T08:24:57.584Z,22.87
2022-09-03T08:27:26.234Z,22.73
2022-09-03T08:29:49.667Z,22.96
2022-09-03T08:32:14.441Z,23.26
2022-09-03T08:34:37.751Z,23.06
2022-09-03T08:37:02.430Z,23.10
2022-09-03T08:39:25.776Z,23.64
2022-09-03T08:42:04.180Z,23.74
2022-09-03T08:44:29.458Z,23.54
2022-09-03T08:46:54.987Z,23.46
2022-09-03T08:49:22.299Z,23.48
2022-09-03T08:51:45.609Z,23.57
2022-09-03T08:54:09.223Z,23.28
2022-09-03T08:56:33.141Z,23.38
2022-09-03T08:58:56.525Z,23.42
2022-09-03T09:01:26.677Z,23.17
2022-09-03T09:03:54.457Z,23.28
2022-09-03T09:06:22.690Z,23.46
2022-09-03T09:08:58.407Z,23.51
2022-09-03T09:11:26.789Z,23.72
2022-09-03T09:13:52.600Z,23.81
2022-09-03T09:16:19.120Z,23.65
2022-09-03T09:18:49.585Z,23.75
2022-09-03T09:21:18.949Z,23.75
2022-09-03T09:23:45.981Z,23.79
2022-09-03T09:26:11.301Z,23.84
2022-09-03T09:28:35.754Z,23.73
2022-09-03T09:30:59.109Z,23.87
2022-09-03T09:33:22.674Z,23.75
2022-09-03T09:35:46.060Z,23.63
2022-09-03T09:38:09.522Z,23.71
2022-09-03T09:40:35.370Z,23.63
2022-09-03T09:43:06.455Z,23.52
2022-09-03T09:45:29.872Z,23.65
2022-09-03T09:47:55.237Z,23.74
2022-09-03T09:50:25.988Z,23.83
2022-09-03T09:52:49.886Z,23.65
2022-09-03T09:55:17.734Z,23.79
2022-09-03T09:57:42.433Z,23.82
2022-09-03T10:00:08.979Z,23.99
2022-09-03T10:02:38.205Z,24.07
2022-09-03T10:05:03.414Z,24.09
2022-09-03T10:07:28.161Z,23.80
2022-09-03T10:10:03.405Z,23.87
2022-09-03T10:12:27.793Z,23.65
2022-09-03T10:14:54.509Z,23.65
2022-09-03T10:17:20.789Z,23.89
2022-09-03T10:20:14.540Z,23.88
2022-09-03T10:22:57.129Z,23.75
2022-09-03T10:25:21.001Z,23.93
2022-09-03T10:27:46.253Z,23.82
2022-09-03T10:30:11.982Z,23.50
2022-09-03T10:32:38.979Z,23.71
2022-09-03T10:35:10.415Z,23.38
2022-09-03T10:37:38.717Z,23.54
2022-09-03T10:40:19.560Z,23.51
2022-09-03T10:42:45.842Z,23.41
2022-09-03T10:45:17.543Z,23.59
2022-09-03T10:48:05.530Z,23.57
2022-09-03T10:50:29.742Z,23.63
2022-09-03T10:53:07.147Z,23.43
2022-09-03T10:55:32.695Z,23.34
2022-09-03T10:58:00.241Z,23.45
2022-09-03T11:00:26.276Z,23.58
2022-09-03T11:03:03.918Z,23.67
2022-09-03T11:05:31.034Z,23.51
2022-09-03T11:07:58.629Z,23.60
2022-09-03T11:10:24.997Z,23.57
2022-09-03T11:12:56.995Z,23.41
2022-09-03T11:15:27.646Z,23.45
2022-09-03T11:17:56.884Z,23.52
2022-09-03T11:20:20.744Z,23.55
2022-09-03T11:22:44.323Z,23.64
2022-09-03T11:25:08.942Z,23.57
2022-09-03T11:27:36.897Z,23.51
2022-09-03T11:30:02.028Z,23.83
2022-09-03T11:32:27.058Z,23.92
2022-09-03T11:34:52.349Z,23.75
2022-09-03T11:37:19.814Z,23.68
2022-09-03T11:39:43.268Z,23.82
2022-09-03T11:42:10.588Z,23.87
2022-09-03T11:44:37.814Z,23.88
2022-09-03T11:47:17.939Z,23.93
2022-09-03T11:49:46.370Z,23.61
2022-09-03T11:52:12.297Z,23.47
2022-09-03T11:54:44.652Z,23.45
2022-09-03T11:57:11.770Z,23.34
2022-09-03T11:59:35.100Z,23.48
2022-09-03T12:02:00.516Z,23.48
2022-09-03T12:04:26.007Z,23.41
2022-09-03T12:07:06.218Z,23.53
2022-09-03T12:09:42.147Z,23.40
2022-09-03T12:12:14.713Z,23.57
2022-09-03T12:14:40.497Z,23.52
2022-09-03T12:17:09.883Z,23.67
2022-09-03T12:19:37.203Z,23.67
2022-09-03T12:22:03.070Z,23.90
2022-09-03T12:24:37.860Z,23.62
2022-09-03T12:27:03.067Z,23.51
2022-09-03T12:29:27.838Z,23.47
2022-09-03T12:31:51.648Z,23.47
2022-09-03T12:34:16.832Z,23.30
2022-09-03T12:36:40.863Z,23.39
2022-09-03T12:39:12.779Z,23.66
2022-09-03T12:41:37.812Z,23.63
2022-09-03T12:44:02.919Z,23.52
2022-09-03T12:46:33.278Z,23.48
2022-09-03T12:51:49.211Z,23.41
2022-09-03T12:54:16.130Z,23.39
2022-09-03T12:56:42.524Z,23.54
2022-09-03T12:59:08.162Z,23.45
2022-09-03T13:01:32.725Z,23.27
2022-09-03T13:03:57.948Z,23.39
2022-09-03T13:06:21.823Z,23.33
2022-09-03T13:08:47.150Z,23.30
2022-09-03T13:11:10.570Z,23.49
2022-09-03T13:13:39.397Z,23.68
2022-09-03T13:16:21.271Z,23.69
2022-09-03T13:18:46.850Z,23.71
2022-09-03T13:21:14.686Z,23.66
2022-09-03T13:23:44.981Z,23.19
2022-09-03T13:26:16.259Z,23.19
2022-09-03T13:28:47.532Z,23.32
2022-09-03T13:31:22.422Z,23.27
2022-09-03T13:33:46.078Z,23.07
2022-09-03T13:36:11.701Z,22.97
2022-09-03T13:38:38.696Z,23.02
2022-09-03T13:41:04.857Z,23.06
2022-09-03T13:43:31.647Z,22.94
2022-09-03T13:45:57.493Z,23.15
2022-09-03T13:48:42.830Z,23.00
2022-09-03T13:51:10.500Z,23.12
2022-09-03T13:53:42.055Z,23.27
2022-09-03T13:56:07.438Z,23.40
2022-09-03T13:58:32.257Z,23.42
2022-09-03T14:00:56.128Z,23.45
2022-09-03T14:03:26.891Z,23.39
2022-09-03T14:05:56.257Z,23.39
2022-09-03T14:08:25.216Z,23.50
2022-09-03T14:11:01.758Z,23.30
2022-09-03T14:13:38.329Z,23.37
2022-09-03T14:16:05.773Z,23.11
2022-09-03T14:18:39.181Z,23.17
2022-09-03T14:21:03.894Z,23.20
2022-09-03T14:23:32.338Z,23.15
2022-09-03T14:25:55.789Z,22.99
2022-09-03T14:28:26.417Z,22.81
2022-09-03T14:30:55.971Z,22.92
2022-09-03T14:33:21.969Z,22.95
2022-09-03T14:35:58.408Z,22.64
2022-09-03T14:38:34.043Z,22.53
2022-09-03T14:41:03.405Z,22.75
2022-09-03T14:43:33.547Z,22.82
2022-09-03T14:46:06.070Z,22.55
2022-09-03T14:48:42.653Z,22.70
2022-09-03T14:51:19.972Z,22.64
2022-09-03T14:53:58.818Z,22.54
2022-09-03T14:56:30.302Z,22.55
2022-09-03T14:59:21.649Z,22.41
2022-09-03T15:01:45.004Z,22.48
2022-09-03T15:04:20.856Z,22.55
2022-09-03T15:06:52.162Z,22.75
2022-09-03T15:09:34.009Z,22.73
2022-09-03T15:11:58.755Z,22.63
2022-09-03T15:14:26.388Z,22.47
2022-09-03T15:16:52.787Z,22.55
2022-09-03T15:19:23.674Z,22.65
2022-09-03T15:22:01.479Z,22.61
2022-09-03T15:24:28.954Z,22.72
2022-09-03T15:26:59.431Z,22.53
2022-09-03T15:29:50.680Z,22.75
2022-09-03T15:32:20.140Z,22.75
2022-09-03T15:34:50.450Z,23.00
2022-09-03T15:37:18.309Z,23.05
2022-09-03T15:39:44.476Z,22.88
2022-09-03T15:42:09.271Z,22.60
2022-09-03T15:44:37.365Z,22.66
2022-09-03T15:47:01.362Z,22.48
2022-09-03T15:49:27.936Z,22.63
2022-09-03T15:52:01.427Z,22.44
2022-09-03T15:54:34.666Z,22.65
2022-09-03T15:57:00.968Z,22.58
2022-09-03T15:59:26.973Z,22.42
2022-09-03T16:01:53.458Z,22.66
2022-09-03T16:04:34.992Z,22.20
2022-09-03T16:06:59.797Z,22.51
2022-09-03T16:09:32.704Z,22.32
2022-09-03T16:11:58.235Z,22.53
2022-09-03T16:14:28.883Z,22.29
2022-09-03T16:17:01.631Z,22.02
2022-09-03T16:19:26.264Z,22.02
2022-09-03T16:21:50.944Z,21.89
2022-09-03T16:24:18.037Z,21.70
2022-09-03T16:26:45.442Z,21.59
2022-09-03T16:29:09.516Z,22.03
2022-09-03T16:31:41.029Z,22.30
2022-09-03T16:34:07.181Z,22.24
2022-09-03T16:36:39.527Z,22.17
2022-09-03T16:39:04.725Z,22.11
2022-09-03T16:41:30.325Z,22.23
2022-09-03T16:43:59.850Z,22.19
2022-09-03T16:46:26.373Z,22.18
2022-09-03T16:48:54.893Z,22.27
2022-09-03T16:51:21.451Z,22.18
2022-09-03T16:53:58.343Z,21.89
2022-09-03T16:56:34.256Z,22.26
2022-09-03T16:59:03.061Z,22.42
2022-09-03T17:01:39.794Z,22.43
2022-09-03T17:04:28.895Z,22.32
2022-09-03T17:06:57.282Z,22.15
2022-09-03T17:09:28.714Z,22.44
2022-09-03T17:11:57.898Z,22.59
2022-09-03T17:14:28.886Z,22.33
2022-09-03T17:16:54.775Z,22.80
2022-09-03T17:19:23.288Z,22.72
2022-09-03T17:21:49.906Z,23.04
2022-09-03T17:24:25.082Z,22.87
2022-09-03T17:26:55.963Z,23.09
2022-09-03T17:29:29.098Z,22.80
2022-09-03T17:31:57.409Z,22.77
2022-09-03T17:34:32.693Z,22.72
2022-09-03T17:37:01.151Z,22.60
2022-09-03T17:39:47.189Z,22.51
2022-09-03T17:42:15.344Z,22.66
2022-09-03T17:44:49.306Z,22.50
2022-09-03T17:47:32.835Z,22.28
2022-09-03T17:49:58.145Z,22.48
2022-09-03T17:52:24.881Z,22.57
2022-09-03T17:54:50.105Z,22.79
2022-09-03T17:57:17.031Z,22.47
2022-09-03T17:59:44.311Z,22.22
2022-09-03T18:02:11.534Z,22.48
2022-09-03T18:04:45.903Z,22.53
2022-09-03T18:07:12.569Z,22.08
2022-09-03T18:09:38.963Z,22.19
2022-09-03T18:12:09.121Z,21.96
2022-09-03T18:14:35.154Z,22.20
2022-09-03T18:17:03.209Z,22.31
2022-09-03T18:19:31.564Z,21.84
2022-09-03T18:22:12.064Z,21.47
2022-09-03T18:24:54.015Z,21.70
2022-09-03T18:27:36.224Z,22.00
2022-09-03T18:30:19.881Z,22.13
2022-09-03T18:33:01.651Z,22.03
2022-09-03T18:35:44.010Z,21.60
2022-09-03T18:38:24.689Z,21.46
2022-09-03T18:41:08.882Z,21.60
2022-09-03T18:43:51.971Z,21.95
2022-09-03T18:49:38.654Z,21.80
2022-09-03T18:52:23.947Z,21.79
2022-09-03T18:55:14.971Z,22.07
2022-09-03T18:58:01.957Z,22.29
2022-09-03T19:00:42.814Z,22.20
2022-09-03T19:03:38.138Z,21.89
2022-09-03T19:06:23.976Z,22.00
2022-09-03T19:09:12.541Z,22.41
2022-09-03T19:11:58.415Z,22.33
2022-09-03T19:14:47.811Z,22.45
2022-09-03T19:17:31.399Z,22.26
2022-09-03T19:20:16.144Z,22.50
2022-09-03T19:22:58.023Z,22.13
2022-09-03T19:25:40.449Z,22.08
2022-09-03T19:28:29.852Z,21.95
2022-09-03T19:31:15.549Z,22.38
2022-09-03T19:33:59.034Z,22.66
2022-09-03T19:36:42.467Z,22.65
2022-09-03T19:39:31.894Z,22.69
2022-09-03T19:42:16.843Z,22.50
2022-09-03T19:45:04.704Z,22.51
2022-09-03T19:47:57.961Z,22.56
2022-09-03T19:50:40.952Z,22.16
2022-09-03T19:53:23.275Z,22.01
2022-09-03T19:56:07.588Z,22.02
2022-09-03T19:58:51.188Z,22.55
2022-09-03T20:01:32.067Z,22.99
2022-09-03T20:04:13.499Z,22.76
2022-09-03T20:06:54.132Z,22.99
2022-09-03T20:09:35.262Z,22.76
2022-09-03T20:12:02.252Z,23.02
2022-09-03T20:14:28.962Z,23.06
2022-09-03T20:16:58.788Z,22.90
2022-09-03T20:19:25.489Z,22.92
2022-09-03T20:21:50.816Z,22.40
2022-09-03T20:24:24.842Z,22.54
2022-09-03T20:26:51.897Z,23.03
2022-09-03T20:29:25.910Z,22.93
2022-09-03T20:31:53.897Z,22.81
2022-09-03T20:34:27.181Z,22.74
2022-09-03T20:36:55.666Z,22.77
2022-09-03T20:39:36.635Z,22.35
2022-09-03T20:42:04.506Z,22.43
2022-09-03T20:44:44.967Z,22.31
2022-09-03T20:47:16.443Z,22.49
2022-09-03T20:49:42.509Z,22.85
2022-09-03T20:52:07.718Z,23.00
2022-09-03T20:54:33.688Z,22.76
2022-09-03T20:57:05.771Z,22.36
2022-09-03T20:59:35.382Z,22.72
2022-09-03T21:01:59.912Z,22.37
2022-09-03T21:04:33.619Z,22.12
2022-09-03T21:06:59.695Z,22.45
2022-09-03T21:09:29.068Z,22.69
2022-09-03T21:11:54.761Z,22.86
2022-09-03T21:14:24.250Z,22.56
2022-09-03T21:16:54.568Z,22.77
2022-09-03T21:19:20.915Z,22.49
2022-09-03T21:21:50.811Z,22.72
2022-09-03T21:24:16.495Z,22.58
2022-09-03T21:26:46.956Z,22.33
2022-09-03T21:29:13.156Z,22.15
2022-09-03T21:31:39.033Z,22.25
2022-09-03T21:34:10.699Z,22.67
2022-09-03T21:36:35.979Z,22.52
2022-09-03T21:39:04.521Z,22.43
2022-09-03T21:41:29.361Z,22.17
2022-09-03T21:43:54.721Z,22.50
2022-09-03T21:46:20.160Z,22.12
2022-09-03T21:48:45.258Z,22.32
2022-09-03T21:51:11.319Z,21.86
2022-09-03T21:53:39.062Z,22.10
2022-09-03T21:56:16.211Z,22.09
2022-09-03T21:58:48.472Z,22.19
2022-09-03T22:01:13.631Z,22.09
2022-09-03T22:03:36.903Z,22.18
2022-09-03T22:06:01.814Z,22.10
2022-09-03T22:08:26.717Z,22.00
2022-09-03T22:10:55.546Z,21.74
2022-09-03T22:13:23.916Z,21.83
2022-09-03T22:15:52.003Z,21.77
2022-09-03T22:18:23.726Z,21.93
2022-09-03T22:20:59.855Z,21.97
2022-09-03T22:23:24.885Z,22.00
2022-09-03T22:25:51.998Z,21.92
2022-09-03T22:28:19.396Z,22.03
2022-09-03T22:30:48.169Z,22.22
2022-09-03T22:33:15.536Z,22.30
2022-09-03T22:35:46.552Z,22.40
2022-09-03T22:38:37.123Z,22.04
2022-09-03T22:41:03.547Z,22.12
2022-09-03T22:43:36.336Z,21.99
2022-09-03T22:46:06.024Z,21.63
2022-09-03T22:48:45.777Z,22.04
2022-09-03T22:51:09.770Z,22.32
2022-09-03T22:53:40.830Z,22.73
2022-09-03T22:56:06.998Z,22.63
2022-09-03T22:58:31.727Z,22.27
2022-09-03T23:00:57.761Z,22.29
2022-09-03T23:03:37.149Z,22.50
2022-09-03T23:06:02.551Z,22.52
2022-09-03T23:08:28.758Z,22.81
2022-09-03T23:11:02.724Z,22.94
2022-09-03T23:13:28.112Z,23.07
2022-09-03T23:15:57.219Z,22.75
2022-09-03T23:18:26.518Z,22.27
2022-09-03T23:20:53.241Z,22.16
2022-09-03T23:23:18.234Z,22.69
2022-09-03T23:25:42.978Z,22.51
2022-09-03T23:28:09.563Z,22.29
2022-09-03T23:30:32.922Z,22.24
2022-09-03T23:32:58.454Z,22.42
2022-09-03T23:35:23.395Z,22.17
2022-09-03T23:37:53.953Z,22.28
2022-09-03T23:40:46.377Z,21.61
2022-09-03T23:43:32.269Z,21.74
2022-09-03T23:46:00.437Z,21.20
2022-09-03T23:48:26.459Z,21.28
2022-09-03T23:50:56.681Z,21.22
2022-09-03T23:53:28.518Z,21.41
2022-09-03T23:56:02.686Z,21.44
2022-09-03T23:58:30.979Z,21.30
